Time;durP1;ratioP1;P1;durP2;ratioP2;P2;SDS_P1;SDS_P2;PMS_P1;PMS_P2;Temp;Humidity;BMP_temperature;BMP_pressure;BME280_temperature;BME280_humidity;BME280_pressure;Samples;Min_cycle;Max_cycle;Signal;HPM_P1;HPM_P2
2020/12/15 00:00:22;;;;;;;21.17;18.77;;;;;;;14.01;68.35;100534.75;5065350;28;20433;-80
2020/12/15 00:02:47;;;;;;;25.17;22.48;;;;;;;14.05;68.43;100524.19;5067490;28;20032;-80
2020/12/15 00:05:12;;;;;;;22.95;20.52;;;;;;;14.00;68.66;100524.88;5065291;28;20036;-81
2020/12/15 00:07:38;;;;;;;23.50;21.15;;;;;;;14.14;68.13;100536.50;5048707;28;20095;-80
2020/12/15 00:10:03;;;;;;;24.73;22.25;;;;;;;14.25;67.81;100524.78;5061914;28;20070;-79
2020/12/15 00:12:29;;;;;;;28.30;21.38;;;;;;;14.25;67.74;100508.38;5068765;28;20205;-79
2020/12/15 00:14:54;;;;;;;28.35;21.35;;;;;;;14.37;67.34;100521.31;5059097;28;20158;-79
2020/12/15 00:17:20;;;;;;;19.42;17.42;;;;;;;14.49;66.87;100524.94;5060434;28;20135;-79
2020/12/15 00:19:45;;;;;;;25.80;20.65;;;;;;;14.33;67.33;100513.56;5060495;28;20024;-78
2020/12/15 00:22:11;;;;;;;21.42;18.88;;;;;;;14.20;67.82;100516.44;5063475;28;20573;-81
2020/12/15 00:24:37;;;;;;;21.92;19.75;;;;;;;14.12;68.02;100522.22;5042805;28;20028;-78
2020/12/15 00:27:03;;;;;;;26.77;23.92;;;;;;;13.99;68.21;100519.63;5040332;28;20028;-80
2020/12/15 00:29:28;;;;;;;20.15;18.00;;;;;;;14.40;67.28;100518.13;5061730;28;20067;-78
2020/12/15 00:31:54;;;;;;;20.80;18.60;;;;;;;14.12;67.84;100514.03;5040716;28;20031;-79
2020/12/15 00:34:19;;;;;;;23.30;19.38;;;;;;;14.01;68.02;100520.22;5062252;28;20044;-79
2020/12/15 00:36:44;;;;;;;22.52;20.00;;;;;;;14.20;67.79;100524.66;5059373;28;20090;-79
2020/12/15 00:39:10;;;;;;;23.13;19.63;;;;;;;13.93;68.60;100522.22;5064164;28;20386;-78
2020/12/15 00:41:35;;;;;;;20.15;17.85;;;;;;;14.01;68.38;100515.63;5043135;28;20036;-79
2020/12/15 00:44:01;;;;;;;25.48;20.25;;;;;;;13.93;68.42;100514.03;5043023;28;20433;-78
2020/12/15 00:46:26;;;;;;;22.35;18.25;;;;;;;13.90;68.58;100508.16;5060902;28;20040;-78
2020/12/15 00:48:51;;;;;;;19.75;16.55;;;;;;;13.85;68.53;100508.84;5062785;28;20024;-80
2020/12/15 00:51:18;;;;;;;20.40;17.85;;;;;;;13.88;68.44;100508.38;5042770;28;20051;-78
2020/12/15 00:53:47;;;;;;;21.52;19.23;;;;;;;13.90;68.30;100511.75;5061618;28;20043;-80
2020/12/15 00:56:14;;;;;;;20.60;17.00;;;;;;;14.00;68.27;100499.44;5026753;28;20036;-79
2020/12/15 00:58:40;;;;;;;21.45;18.38;;;;;;;13.92;68.12;100498.66;5062065;28;20039;-79
2020/12/15 01:01:06;;;;;;;19.30;17.40;;;;;;;14.10;67.81;100506.06;5041882;28;20113;-78
2020/12/15 01:03:32;;;;;;;23.13;17.42;;;;;;;13.97;68.13;100500.72;5061262;28;20082;-79
2020/12/15 01:05:57;;;;;;;20.65;18.05;;;;;;;13.82;68.46;100501.09;5063431;28;20032;-79
2020/12/15 01:08:23;;;;;;;18.60;16.42;;;;;;;13.83;68.49;100501.94;5063106;28;20032;-78
2020/12/15 01:10:50;;;;;;;18.75;15.68;;;;;;;14.05;67.60;100494.94;5060825;28;20029;-78
2020/12/15 01:13:16;;;;;;;17.50;14.63;;;;;;;13.91;68.05;100498.91;5063233;28;20624;-80
2020/12/15 01:15:41;;;;;;;18.20;15.52;;;;;;;14.03;67.73;100502.56;5047073;28;20082;-78
2020/12/15 01:18:06;;;;;;;18.38;14.95;;;;;;;14.00;67.79;100496.72;5045470;28;20033;-78
2020/12/15 01:20:32;;;;;;;34.95;15.90;;;;;;;13.99;67.91;100511.44;5045601;28;20028;-78
2020/12/15 01:22:57;;;;;;;21.40;16.23;;;;;;;13.93;67.18;100497.63;5050325;28;20036;-78
2020/12/15 01:25:23;;;;;;;18.10;15.75;;;;;;;13.87;67.90;100503.13;5060003;28;20513;-79
2020/12/15 01:27:48;;;;;;;17.98;16.13;;;;;;;13.97;67.67;100504.28;5069384;28;20033;-79
2020/12/15 01:30:14;;;;;;;15.43;13.93;;;;;;;13.86;67.88;100504.22;5063075;28;20112;-79
2020/12/15 01:32:39;;;;;;;17.30;14.82;;;;;;;14.01;67.38;100485.53;5063940;28;20036;-79
2020/12/15 01:35:04;;;;;;;17.70;15.88;;;;;;;13.97;67.53;100498.00;5045390;28;20583;-78
2020/12/15 01:37:30;;;;;;;17.95;14.93;;;;;;;13.85;67.88;100494.34;5063440;28;20123;-79
2020/12/15 01:39:55;;;;;;;19.75;15.57;;;;;;;13.91;67.66;100497.00;5066094;28;20029;-77
2020/12/15 01:42:21;;;;;;;17.63;15.77;;;;;;;13.72;67.78;100487.13;5062669;28;20036;-79
2020/12/15 01:44:46;;;;;;;20.27;17.08;;;;;;;13.87;67.87;100487.59;5065604;28;20028;-79
2020/12/15 01:47:14;;;;;;;16.63;14.82;;;;;;;13.67;68.34;100482.34;5066122;28;20240;-77
2020/12/15 01:49:40;;;;;;;18.70;16.83;;;;;;;13.68;68.45;100483.16;5073924;28;20039;-79
2020/12/15 01:52:06;;;;;;;20.95;16.45;;;;;;;13.76;68.07;100496.53;5067835;28;20040;-79
2020/12/15 01:54:31;;;;;;;18.33;16.48;;;;;;;13.67;68.17;100497.88;5074579;28;20102;-78
2020/12/15 01:56:57;;;;;;;18.10;16.25;;;;;;;13.96;67.41;100499.91;5064819;28;20040;-78
2020/12/15 01:59:22;;;;;;;18.05;15.55;;;;;;;13.82;67.45;100494.78;5065533;28;20155;-78
2020/12/15 02:01:48;;;;;;;20.38;15.38;;;;;;;13.87;67.66;100498.53;5049328;28;20045;-78
2020/12/15 02:04:14;;;;;;;17.55;15.75;;;;;;;13.68;68.58;100494.09;5066355;28;20363;-78
2020/12/15 02:06:43;;;;;;;19.17;17.17;;;;;;;13.74;68.31;100494.00;5069108;28;20032;-78
2020/12/15 02:09:09;;;;;;;19.40;16.60;;;;;;;13.66;68.56;100490.75;5056334;28;20052;-79
2020/12/15 02:11:34;;;;;;;17.30;15.55;;;;;;;13.91;67.47;100498.91;5068552;28;20031;-79
2020/12/15 02:14:00;;;;;;;19.65;15.75;;;;;;;13.95;67.54;100495.47;5066975;28;20074;-78
2020/12/15 02:16:27;;;;;;;22.17;18.00;;;;;;;13.68;68.50;100484.00;5078529;28;20032;-78
2020/12/15 02:18:53;;;;;;;20.58;17.58;;;;;;;13.67;68.90;100503.34;5067257;28;20028;-77
2020/12/15 02:21:18;;;;;;;19.48;16.50;;;;;;;13.73;68.69;100511.50;5049709;28;20079;-78
2020/12/15 02:23:44;;;;;;;19.75;17.15;;;;;;;13.69;68.64;100504.81;5064536;28;20454;-79
2020/12/15 02:26:11;;;;;;;21.15;18.95;;;;;;;13.92;68.02;100519.72;5072238;28;20032;-78
2020/12/15 02:28:36;;;;;;;20.92;18.38;;;;;;;13.87;68.08;100514.94;5068201;28;20056;-78
2020/12/15 02:31:02;;;;;;;22.65;18.33;;;;;;;13.97;67.43;100517.97;5071427;28;20071;-78
2020/12/15 02:33:27;;;;;;;22.80;17.98;;;;;;;13.82;68.30;100514.75;5049034;28;20543;-79
2020/12/15 02:35:53;;;;;;;22.25;18.38;;;;;;;13.98;67.58;100513.34;5050006;28;20049;-80
2020/12/15 02:38:19;;;;;;;24.88;19.85;;;;;;;14.08;67.36;100519.09;5049498;28;20025;-78
2020/12/15 02:40:44;;;;;;;21.85;19.55;;;;;;;13.73;68.56;100516.09;5033972;28;20521;-80
2020/12/15 02:43:10;;;;;;;23.30;19.42;;;;;;;13.84;68.31;100514.53;5067186;28;20028;-78
2020/12/15 02:45:35;;;;;;;23.17;20.27;;;;;;;13.91;68.13;100516.13;5067428;28;20072;-79
2020/12/15 02:48:00;;;;;;;23.88;19.65;;;;;;;13.83;68.26;100523.81;5050639;28;20036;-79
2020/12/15 02:50:26;;;;;;;25.73;20.48;;;;;;;13.75;68.57;100523.03;5066111;28;20423;-78
2020/12/15 02:52:52;;;;;;;22.48;19.05;;;;;;;14.01;67.61;100525.69;5074197;28;20515;-79
2020/12/15 02:55:18;;;;;;;20.95;18.55;;;;;;;13.91;68.37;100535.25;5068412;28;20024;-78
2020/12/15 02:57:43;;;;;;;20.55;18.38;;;;;;;14.00;67.58;100535.81;5066209;28;20028;-78
2020/12/15 03:00:10;;;;;;;20.92;16.98;;;;;;;14.00;67.52;100544.03;5046123;28;20043;-79
2020/12/15 03:02:35;;;;;;;20.42;17.50;;;;;;;14.19;67.07;100547.59;5065731;28;20039;-78
2020/12/15 03:05:01;;;;;;;20.10;17.17;;;;;;;14.14;66.94;100551.00;5067639;28;20032;-78
2020/12/15 03:07:26;;;;;;;20.98;17.30;;;;;;;14.24;66.66;100550.50;5049572;28;20040;-78
2020/12/15 03:09:52;;;;;;;23.65;19.48;;;;;;;14.12;67.26;100557.78;5068434;28;20043;-78
2020/12/15 03:12:23;;;;;;;22.80;19.70;;;;;;;14.17;66.85;100547.00;5067104;28;20280;-78
2020/12/15 03:14:49;;;;;;;24.33;19.63;;;;;;;14.02;67.65;100552.81;5073354;28;20044;-78
2020/12/15 03:17:16;;;;;;;22.23;18.17;;;;;;;14.18;67.06;100556.88;5064630;28;20566;-77
2020/12/15 03:19:41;;;;;;;20.52;17.55;;;;;;;14.24;66.75;100549.63;5069089;28;20364;-76
2020/12/15 03:22:07;;;;;;;19.30;16.42;;;;;;;14.24;66.66;100566.06;5063863;28;20485;-77
2020/12/15 03:24:32;;;;;;;20.25;16.77;;;;;;;14.26;66.83;100570.25;5047934;28;20036;-78
2020/12/15 03:26:58;;;;;;;24.95;17.63;;;;;;;14.19;67.16;100561.25;5067257;28;20105;-77
2020/12/15 03:29:23;;;;;;;22.63;19.00;;;;;;;14.31;66.80;100566.81;5073434;28;20020;-77
2020/12/15 03:31:49;;;;;;;23.90;19.27;;;;;;;14.26;66.62;100572.16;5064897;28;20040;-78
2020/12/15 03:34:14;;;;;;;22.27;17.17;;;;;;;14.17;67.03;100571.59;5046727;28;20021;-78
2020/12/15 03:36:39;;;;;;;21.15;17.50;;;;;;;14.28;66.54;100568.09;5068409;28;20032;-79
2020/12/15 03:39:06;;;;;;;21.13;17.65;;;;;;;14.14;67.06;100570.16;5066003;28;20024;-79
2020/12/15 03:41:32;;;;;;;26.17;18.30;;;;;;;14.24;67.06;100574.25;5066655;28;20089;-78
2020/12/15 03:43:57;;;;;;;28.75;20.30;;;;;;;14.25;66.97;100565.81;5066613;28;20449;-78
2020/12/15 03:46:22;;;;;;;27.90;20.45;;;;;;;14.29;66.97;100564.31;5072658;28;20047;-78
2020/12/15 03:48:48;;;;;;;25.40;20.23;;;;;;;14.03;67.79;100553.69;5065411;28;20036;-77
2020/12/15 03:51:13;;;;;;;27.08;19.92;;;;;;;14.26;67.05;100559.31;5064420;28;20449;-78
2020/12/15 03:53:39;;;;;;;27.73;22.17;;;;;;;14.21;67.25;100547.38;5065325;28;20078;-78
2020/12/15 03:56:04;;;;;;;30.20;22.95;;;;;;;14.41;66.53;100549.88;5049145;28;20028;-77
2020/12/15 03:58:29;;;;;;;26.75;22.17;;;;;;;14.33;66.77;100560.06;5065115;28;20040;-77
2020/12/15 04:00:55;;;;;;;27.23;22.95;;;;;;;14.38;66.63;100564.00;5048253;28;20036;-77
2020/12/15 04:03:20;;;;;;;28.35;23.95;;;;;;;14.37;66.59;100560.44;5046173;28;20451;-77
2020/12/15 04:05:46;;;;;;;29.10;23.45;;;;;;;14.40;66.71;100568.19;5066586;28;20475;-77
2020/12/15 04:08:11;;;;;;;27.80;20.33;;;;;;;14.36;66.54;100560.66;5063975;28;20537;-76
2020/12/15 04:10:37;;;;;;;29.48;22.23;;;;;;;14.39;66.31;100558.31;5064858;28;20037;-78
2020/12/15 04:13:02;;;;;;;31.02;23.98;;;;;;;14.28;66.95;100562.63;5074906;28;20032;-77
2020/12/15 04:15:27;;;;;;;26.73;21.30;;;;;;;14.36;66.44;100545.06;5064321;28;20040;-77
2020/12/15 04:17:53;;;;;;;26.90;19.90;;;;;;;14.30;66.94;100551.47;5066565;28;20298;-77
2020/12/15 04:20:18;;;;;;;26.65;21.38;;;;;;;14.26;66.78;100548.34;5067711;28;20047;-78
2020/12/15 04:22:44;;;;;;;24.02;20.13;;;;;;;14.26;66.79;100555.75;5072312;28;20032;-77
2020/12/15 04:25:09;;;;;;;24.65;20.92;;;;;;;14.20;66.85;100568.41;5066392;28;20040;-77
2020/12/15 04:27:34;;;;;;;25.55;20.60;;;;;;;14.30;66.39;100565.13;5066135;28;20039;-77
2020/12/15 04:30:00;;;;;;;23.67;20.77;;;;;;;14.28;66.68;100562.63;5064188;28;20025;-78
2020/12/15 04:32:25;;;;;;;26.90;20.27;;;;;;;14.24;66.72;100561.44;5064656;28;20099;-78
2020/12/15 04:34:51;;;;;;;24.42;19.30;;;;;;;14.33;66.14;100562.81;5049235;28;20063;-79
2020/12/15 04:37:17;;;;;;;22.50;20.17;;;;;;;14.35;66.04;100567.19;5062507;28;20028;-79
2020/12/15 04:39:42;;;;;;;23.38;18.48;;;;;;;14.39;65.93;100576.63;5072014;28;20036;-78
2020/12/15 04:42:08;;;;;;;22.08;19.02;;;;;;;14.30;66.32;100567.88;5065326;28;20041;-78
2020/12/15 04:44:34;;;;;;;21.70;19.27;;;;;;;14.37;66.02;100573.28;5070249;28;20036;-79
2020/12/15 04:47:19;;;;;;;22.85;20.38;;;;;;;14.43;65.66;100572.38;5061473;28;20032;-78
2020/12/15 04:49:53;;;;;;;22.65;19.35;;;;;;;14.38;65.67;100580.41;5065623;28;20089;-78
2020/12/15 04:52:23;;;;;;;24.02;18.48;;;;;;;14.39;65.71;100582.09;5065229;28;20840;-77
2020/12/15 04:54:50;;;;;;;21.35;18.88;;;;;;;14.39;65.63;100582.91;5059625;28;20109;-78
2020/12/15 04:57:19;;;;;;;22.85;20.25;;;;;;;14.24;66.20;100579.72;5064565;28;20517;-77
2020/12/15 04:59:48;;;;;;;24.02;20.80;;;;;;;14.37;65.78;100574.13;5073192;28;20031;-78
2020/12/15 05:02:13;;;;;;;22.58;20.25;;;;;;;14.27;66.16;100573.81;5064800;28;20024;-77
2020/12/15 05:04:39;;;;;;;21.27;17.52;;;;;;;14.38;65.90;100578.53;5064814;28;20028;-78
2020/12/15 05:07:06;;;;;;;24.10;21.48;;;;;;;14.31;66.09;100578.59;5065994;28;20032;-78
2020/12/15 05:09:33;;;;;;;23.55;19.25;;;;;;;14.36;65.84;100579.81;5064988;28;20107;-77
2020/12/15 05:11:59;;;;;;;21.27;18.90;;;;;;;14.39;65.70;100582.09;5066633;28;20040;-77
2020/12/15 05:14:25;;;;;;;24.55;18.67;;;;;;;14.31;66.13;100580.50;5063287;28;20043;-78
2020/12/15 05:16:52;;;;;;;21.40;18.40;;;;;;;14.23;66.47;100583.53;5066476;28;20067;-78
2020/12/15 05:19:17;;;;;;;22.90;19.10;;;;;;;14.41;65.91;100583.56;5062002;28;20428;-79
2020/12/15 05:22:01;;;;;;;21.88;19.35;;;;;;;14.43;65.77;100586.88;5069121;28;20441;-78
2020/12/15 05:24:28;;;;;;;23.55;20.05;;;;;;;14.47;65.64;100579.03;5066595;28;20056;-78
2020/12/15 05:26:58;;;;;;;22.88;19.17;;;;;;;14.44;65.75;100590.44;5070295;28;20499;-77
2020/12/15 05:29:24;;;;;;;24.73;22.25;;;;;;;14.49;65.51;100585.16;5058884;28;20028;-78
2020/12/15 05:31:50;;;;;;;22.35;18.05;;;;;;;14.47;65.63;100592.72;5067627;28;20025;-78
2020/12/15 05:34:24;;;;;;;24.85;21.88;;;;;;;14.47;65.67;100581.78;5069706;28;20106;-77
2020/12/15 05:36:51;;;;;;;23.35;20.95;;;;;;;14.48;65.68;100591.66;5062739;28;20077;-78
2020/12/15 05:39:16;;;;;;;22.40;20.05;;;;;;;14.54;65.73;100585.28;5066828;28;20036;-79
2020/12/15 05:41:42;;;;;;;20.98;18.75;;;;;;;14.52;65.80;100587.41;5068892;28;20032;-79
2020/12/15 05:44:08;;;;;;;20.13;17.85;;;;;;;14.56;65.88;100591.34;5051648;28;20486;-79
2020/12/15 05:46:34;;;;;;;22.55;20.25;;;;;;;14.61;65.56;100586.09;5049302;28;20043;-78
2020/12/15 05:49:05;;;;;;;26.38;21.42;;;;;;;14.55;65.60;100592.44;5048909;28;20024;-78
2020/12/15 05:51:38;;;;;;;21.25;18.73;;;;;;;14.56;65.68;100596.00;5050682;28;20033;-78
2020/12/15 05:54:11;;;;;;;26.05;20.70;;;;;;;14.54;65.91;100596.22;5041397;28;20029;-79
2020/12/15 05:56:38;;;;;;;22.45;19.40;;;;;;;14.62;65.61;100601.41;5066520;28;20390;-79
2020/12/15 05:59:18;;;;;;;22.70;20.38;;;;;;;14.63;65.75;100602.28;5067124;28;20020;-78
2020/12/15 06:01:47;;;;;;;22.67;19.15;;;;;;;14.68;65.62;100602.41;5066223;28;20032;-79
2020/12/15 06:04:13;;;;;;;25.40;18.85;;;;;;;14.65;65.73;100600.13;5074699;28;20029;-79
2020/12/15 06:06:40;;;;;;;19.73;17.63;;;;;;;14.59;66.04;100590.06;5066392;28;20511;-79
2020/12/15 06:09:08;;;;;;;22.10;19.33;;;;;;;14.61;65.90;100588.81;5070672;28;20376;-79
2020/12/15 06:11:37;;;;;;;28.40;19.70;;;;;;;14.60;66.18;100589.00;5067673;28;20370;-78
2020/12/15 06:14:02;;;;;;;23.08;18.90;;;;;;;14.60;66.22;100598.09;5069309;28;20300;-79
2020/12/15 06:16:28;;;;;;;23.98;21.20;;;;;;;14.62;66.25;100593.19;5048911;28;20036;-79
2020/12/15 06:18:53;;;;;;;23.83;18.83;;;;;;;14.60;66.55;100598.09;5049850;28;20079;-78
2020/12/15 06:21:19;;;;;;;21.13;18.30;;;;;;;14.68;66.33;100603.22;5064098;28;20749;-79
2020/12/15 06:23:45;;;;;;;21.25;17.95;;;;;;;14.71;66.09;100596.47;5070683;28;20458;-80
2020/12/15 06:26:10;;;;;;;18.77;16.75;;;;;;;14.72;66.16;100605.50;5062086;28;20040;-80
2020/12/15 06:28:35;;;;;;;20.52;18.02;;;;;;;14.70;66.04;100607.66;5053345;28;20551;-81
2020/12/15 06:31:01;;;;;;;22.38;19.58;;;;;;;14.73;66.22;100618.16;5054708;28;20040;-80
2020/12/15 06:33:34;;;;;;;24.40;18.98;;;;;;;14.75;66.18;100610.53;5067168;28;20532;-79
2020/12/15 06:36:00;;;;;;;21.23;18.75;;;;;;;14.72;66.17;100609.09;5074084;28;20080;-80
2020/12/15 06:38:26;;;;;;;24.30;19.55;;;;;;;14.67;66.45;100609.78;5068499;28;20056;-78
2020/12/15 06:40:51;;;;;;;24.83;18.85;;;;;;;14.66;66.53;100605.38;5072190;28;20166;-79
2020/12/15 06:43:28;;;;;;;22.13;19.40;;;;;;;14.75;66.38;100607.78;5066338;28;20058;-80
2020/12/15 06:46:08;;;;;;;26.15;20.55;;;;;;;14.64;66.82;100613.00;5050916;28;20452;-79
2020/12/15 06:48:35;;;;;;;23.20;18.95;;;;;;;14.71;66.72;100618.38;5063974;28;20067;-79
2020/12/15 06:51:00;;;;;;;24.13;19.80;;;;;;;14.63;66.81;100610.47;5048553;28;20592;-78
2020/12/15 06:53:25;;;;;;;21.58;19.17;;;;;;;14.72;66.55;100617.31;5049841;28;20400;-78
2020/12/15 06:55:58;;;;;;;24.08;19.23;;;;;;;14.76;66.44;100618.50;5073505;28;20032;-79
2020/12/15 06:58:24;;;;;;;23.50;19.33;;;;;;;14.81;66.47;100624.16;5049287;28;20028;-79
2020/12/15 07:00:49;;;;;;;26.38;21.48;;;;;;;14.78;66.50;100621.03;5067385;28;20387;-79
2020/12/15 07:03:16;;;;;;;23.92;19.55;;;;;;;14.77;66.51;100625.66;5050928;28;20773;-78
2020/12/15 07:05:41;;;;;;;24.92;20.75;;;;;;;14.81;66.44;100634.25;5064368;28;20168;-79
2020/12/15 07:08:09;;;;;;;27.15;21.63;;;;;;;14.81;66.46;100632.38;5070158;28;20263;-80
2020/12/15 07:10:39;;;;;;;22.83;19.98;;;;;;;14.84;66.57;100640.13;5065043;28;20048;-79
2020/12/15 07:13:05;;;;;;;27.52;21.80;;;;;;;14.76;66.79;100645.88;5050199;28;20058;-79
2020/12/15 07:15:32;;;;;;;22.83;20.35;;;;;;;14.78;66.81;100640.19;5047818;28;20448;-79
2020/12/15 07:18:00;;;;;;;23.13;20.08;;;;;;;14.79;66.88;100653.63;5073655;28;20040;-79
2020/12/15 07:20:25;;;;;;;28.13;23.58;;;;;;;14.75;66.92;100657.06;5065824;28;20025;-79
2020/12/15 07:22:51;;;;;;;29.10;20.88;;;;;;;14.76;67.04;100661.50;5060518;28;20047;-79
2020/12/15 07:25:17;;;;;;;30.40;23.85;;;;;;;14.82;66.95;100655.09;5067169;28;20495;-79
2020/12/15 07:27:43;;;;;;;27.33;23.00;;;;;;;14.82;66.94;100661.41;5065970;28;20343;-80
2020/12/15 07:30:15;;;;;;;27.10;24.13;;;;;;;14.85;66.87;100647.25;5048176;28;20579;-78
2020/12/15 07:32:42;;;;;;;26.95;21.80;;;;;;;14.84;66.93;100639.25;5064746;28;20347;-79
2020/12/15 07:35:10;;;;;;;34.38;25.60;;;;;;;14.67;67.42;100655.47;5046192;28;20047;-79
2020/12/15 07:37:39;;;;;;;31.38;23.60;;;;;;;14.76;67.06;100651.38;5065925;28;20040;-79
2020/12/15 07:40:08;;;;;;;32.85;25.50;;;;;;;14.71;67.31;100661.34;5059301;28;20463;-78
2020/12/15 07:42:33;;;;;;;30.85;26.58;;;;;;;14.80;67.13;100665.44;5062663;28;20094;-79
2020/12/15 07:45:09;;;;;;;29.73;26.52;;;;;;;14.79;67.37;100675.53;5066085;28;20032;-79
2020/12/15 07:47:39;;;;;;;28.98;23.08;;;;;;;14.93;66.65;100675.41;5066706;28;20039;-79
2020/12/15 07:50:05;;;;;;;29.13;24.52;;;;;;;14.89;66.93;100676.91;5065036;28;20029;-79
2020/12/15 07:52:32;;;;;;;31.58;24.92;;;;;;;14.60;67.36;100691.13;5061372;28;20044;-79
2020/12/15 07:55:06;;;;;;;29.92;23.75;;;;;;;14.80;67.17;100688.19;5066072;28;20020;-80
2020/12/15 07:57:33;;;;;;;28.15;23.88;;;;;;;14.85;66.87;100682.84;5063122;28;20025;-79
2020/12/15 08:00:08;;;;;;;27.50;23.98;;;;;;;14.83;66.95;100692.38;5066508;28;22883;-79
2020/12/15 08:02:33;;;;;;;28.98;23.50;;;;;;;14.73;67.30;100695.63;5065441;28;20064;-80
2020/12/15 08:05:23;;;;;;;30.23;23.95;;;;;;;14.80;67.13;100701.03;5050633;28;20112;-80
2020/12/15 08:07:53;;;;;;;29.77;26.63;;;;;;;14.88;66.68;100697.16;5062451;28;20035;-81
2020/12/15 08:10:23;;;;;;;25.08;22.05;;;;;;;14.97;66.46;100704.00;5061511;28;20032;-80
2020/12/15 08:12:48;;;;;;;26.48;20.17;;;;;;;14.93;66.67;100702.78;5051938;28;20032;-78
2020/12/15 08:15:14;;;;;;;26.80;22.83;;;;;;;14.68;67.28;100701.78;5061896;28;20036;-78
2020/12/15 08:17:43;;;;;;;26.23;23.35;;;;;;;14.70;67.11;100706.19;5044559;28;20449;-77
2020/12/15 08:20:10;;;;;;;25.98;20.85;;;;;;;14.92;66.72;100712.91;5065922;28;20033;-79
2020/12/15 08:22:45;;;;;;;25.25;19.50;;;;;;;14.88;66.60;100714.41;5062331;28;20035;-79
2020/12/15 08:25:13;;;;;;;28.13;22.70;;;;;;;14.93;66.65;100732.91;5038094;28;20135;-78
2020/12/15 08:27:38;;;;;;;24.00;20.88;;;;;;;14.94;66.18;100718.16;5056798;28;20036;-79
2020/12/15 08:30:21;;;;;;;33.00;22.58;;;;;;;14.82;66.78;100729.84;5020262;28;20059;-80
2020/12/15 08:32:49;;;;;;;27.25;22.73;;;;;;;14.76;67.07;100729.94;5056747;28;20040;-78
2020/12/15 08:35:22;;;;;;;26.45;21.38;;;;;;;14.72;66.98;100725.97;5032130;28;20044;-78
2020/12/15 08:37:55;;;;;;;23.08;17.88;;;;;;;14.88;66.46;100733.59;5051576;28;20044;-78
2020/12/15 08:40:21;;;;;;;26.70;20.23;;;;;;;14.78;66.84;100738.75;5053381;28;20552;-79
2020/12/15 08:42:47;;;;;;;30.75;25.00;;;;;;;14.82;66.56;100745.44;5023234;28;20040;-79
2020/12/15 08:45:15;;;;;;;25.33;22.70;;;;;;;14.86;66.38;100741.19;5045776;28;20487;-80
2020/12/15 08:47:47;;;;;;;25.27;19.92;;;;;;;14.90;66.34;100753.34;5055913;28;20615;-79
2020/12/15 08:50:16;;;;;;;24.15;18.75;;;;;;;14.77;66.55;100751.59;5054197;28;20021;-79
2020/12/15 08:52:43;;;;;;;24.55;18.55;;;;;;;14.97;66.15;100761.50;5043151;28;20024;-80
2020/12/15 08:55:09;;;;;;;23.48;19.33;;;;;;;14.97;66.13;100769.72;5043542;28;20029;-80
2020/12/15 08:57:34;;;;;;;23.98;18.80;;;;;;;14.97;65.93;100759.59;5055373;28;20036;-81
2020/12/15 09:00:14;;;;;;;23.92;18.77;;;;;;;14.98;65.92;100760.44;5054907;28;20041;-79
2020/12/15 09:02:41;;;;;;;23.27;17.77;;;;;;;14.88;66.28;100769.19;5025749;28;20284;-79
2020/12/15 09:05:10;;;;;;;26.15;17.83;;;;;;;14.91;66.00;100774.19;5040923;28;20635;-79
2020/12/15 09:07:37;;;;;;;29.00;19.25;;;;;;;14.95;65.86;100778.19;5039494;28;20595;-80
2020/12/15 09:10:09;;;;;;;26.13;17.00;;;;;;;14.90;66.35;100783.47;5047531;28;20135;-79
2020/12/15 09:12:35;;;;;;;27.02;17.63;;;;;;;14.89;66.11;100790.03;5054303;28;20048;-80
2020/12/15 09:15:01;;;;;;;23.08;16.25;;;;;;;14.90;65.88;100786.22;5045589;28;20203;-80
2020/12/15 09:17:26;;;;;;;24.88;16.85;;;;;;;15.02;66.10;100792.63;5055487;28;20020;-80
2020/12/15 09:19:52;;;;;;;23.05;15.40;;;;;;;15.03;65.59;100790.72;5053724;28;20582;-80
2020/12/15 09:22:17;;;;;;;23.88;17.13;;;;;;;14.89;66.07;100795.50;5054735;28;20037;-79
2020/12/15 09:24:43;;;;;;;21.13;16.45;;;;;;;14.90;66.03;100799.91;5011023;28;20124;-80
2020/12/15 09:27:23;;;;;;;21.45;16.08;;;;;;;14.99;65.72;100804.03;5056029;28;20033;-80
2020/12/15 09:29:48;;;;;;;21.98;15.57;;;;;;;15.07;65.51;100810.28;5054645;28;20029;-81
2020/12/15 09:32:17;;;;;;;25.13;17.20;;;;;;;14.98;65.74;100813.31;5055300;28;20051;-81
2020/12/15 09:34:43;;;;;;;21.20;15.05;;;;;;;15.03;65.51;100812.66;5050990;28;20029;-80
2020/12/15 09:37:08;;;;;;;22.08;15.55;;;;;;;15.18;65.18;100796.66;5039276;28;20430;-81
2020/12/15 09:39:37;;;;;;;21.77;15.23;;;;;;;15.18;64.83;100795.81;5023417;28;20062;-81
2020/12/15 09:42:03;;;;;;;24.83;15.75;;;;;;;15.16;65.19;100808.91;5040542;28;20075;-80
2020/12/15 09:44:30;;;;;;;24.58;17.15;;;;;;;15.17;65.07;100814.16;5037392;28;20127;-81
2020/12/15 09:46:55;;;;;;;20.20;15.85;;;;;;;15.16;65.11;100817.13;5040658;28;20043;-82
2020/12/15 09:49:21;;;;;;;23.08;16.75;;;;;;;15.24;65.01;100819.56;5024860;28;20032;-81
2020/12/15 09:51:47;;;;;;;22.70;14.82;;;;;;;15.19;64.98;100830.38;5036984;28;20716;-80
2020/12/15 09:54:12;;;;;;;24.50;15.40;;;;;;;15.24;64.88;100836.00;5054531;28;20540;-80
2020/12/15 09:56:42;;;;;;;21.70;15.00;;;;;;;15.30;64.95;100824.13;5042491;28;20372;-81
2020/12/15 09:59:09;;;;;;;21.20;13.75;;;;;;;15.34;64.75;100832.75;5054769;28;20082;-81
2020/12/15 10:01:35;;;;;;;25.40;15.73;;;;;;;15.33;64.54;100831.88;5051143;28;20048;-80
2020/12/15 10:04:01;;;;;;;23.85;15.05;;;;;;;15.26;65.12;100833.88;5053404;28;20048;-80
2020/12/15 10:06:27;;;;;;;21.92;15.68;;;;;;;15.36;64.56;100825.94;5041800;28;20384;-82
2020/12/15 10:08:52;;;;;;;17.77;15.20;;;;;;;15.36;64.52;100817.72;5039042;28;20042;-80
2020/12/15 10:11:18;;;;;;;20.48;14.82;;;;;;;15.40;64.61;100835.41;5038914;28;20037;-82
2020/12/15 10:13:47;;;;;;;21.00;14.63;;;;;;;15.52;64.53;100831.88;5053849;28;22139;-80
2020/12/15 10:16:12;;;;;;;17.90;13.75;;;;;;;15.57;64.36;100832.06;5041877;28;20032;-79
2020/12/15 10:18:38;;;;;;;21.25;14.13;;;;;;;15.64;64.05;100843.75;4995841;28;20127;-80
2020/12/15 10:21:04;;;;;;;23.80;16.13;;;;;;;15.51;64.27;100844.75;5044984;28;20575;-82
2020/12/15 10:23:32;;;;;;;16.70;13.73;;;;;;;15.64;64.07;100853.88;5034596;28;20036;-81
2020/12/15 10:25:58;;;;;;;21.95;14.88;;;;;;;15.62;63.87;100858.78;5049108;28;20032;-82
2020/12/15 10:28:23;;;;;;;20.45;13.88;;;;;;;15.53;63.96;100864.53;5055062;28;20039;-81
2020/12/15 10:30:49;;;;;;;18.27;12.48;;;;;;;15.54;63.89;100854.44;5053544;28;20036;-80
2020/12/15 10:33:14;;;;;;;20.88;15.00;;;;;;;15.56;63.85;100860.53;5058269;28;20055;-82
2020/12/15 10:35:40;;;;;;;22.98;13.35;;;;;;;15.47;64.27;100849.00;5056235;28;20117;-82
2020/12/15 10:38:06;;;;;;;18.17;12.82;;;;;;;15.53;64.28;100842.63;5021209;28;20044;-82
2020/12/15 10:40:31;;;;;;;16.60;11.88;;;;;;;15.60;64.14;100850.78;5050418;28;20032;-82
2020/12/15 10:42:56;;;;;;;16.17;12.40;;;;;;;15.60;64.04;100845.31;5038391;28;20031;-82
2020/12/15 10:45:22;;;;;;;17.90;12.30;;;;;;;15.62;63.87;100850.56;5041875;28;20403;-82
2020/12/15 10:47:48;;;;;;;18.30;13.63;;;;;;;15.61;63.87;100852.44;5025949;28;20033;-82
2020/12/15 10:50:15;;;;;;;15.80;12.52;;;;;;;15.66;63.90;100860.81;5055223;28;20436;-82
2020/12/15 10:52:40;;;;;;;17.75;12.90;;;;;;;15.65;63.94;100858.31;5036909;28;20040;-81
2020/12/15 10:55:06;;;;;;;19.15;12.43;;;;;;;15.59;63.93;100851.84;5053600;28;20033;-81
2020/12/15 10:57:31;;;;;;;23.65;14.65;;;;;;;15.64;64.08;100851.97;5053412;28;20041;-81
2020/12/15 10:59:57;;;;;;;14.38;11.98;;;;;;;15.58;64.12;100851.00;5050091;28;20024;-82
2020/12/15 11:02:22;;;;;;;13.82;11.10;;;;;;;15.68;63.77;100847.72;5034445;28;20123;-82
2020/12/15 11:04:48;;;;;;;21.08;12.90;;;;;;;15.69;63.74;100846.66;5038804;28;20050;-80
2020/12/15 11:07:13;;;;;;;16.52;11.02;;;;;;;15.56;64.01;100852.31;5051089;28;20025;-80